Time;durP1;ratioP1;P1;durP2;ratioP2;P2;SDS_P1;SDS_P2;PMS_P1;PMS_P2;Temp;Humidity;BMP_temperature;BMP_pressure;BME280_temperature;BME280_humidity;BME280_pressure;Samples;Min_cycle;Max_cycle;Signal;HPM_P1;HPM_P2
2022/09/30 00:00:06;;;;;;;5.30;3.30;;;;;;;8.34;100.00;97782.56;4951970;28;20332;-56
2022/09/30 00:02:35;;;;;;;6.60;2.90;;;;;;;8.21;100.00;97781.22;4951455;28;20230;-56
2022/09/30 00:05:01;;;;;;;8.20;3.20;;;;;;;8.07;100.00;97787.00;4941118;28;20242;-57
2022/09/30 00:07:29;;;;;;;5.33;2.93;;;;;;;8.01;100.00;97785.03;4951229;28;20674;-54
2022/09/30 00:09:56;;;;;;;4.90;3.23;;;;;;;7.87;100.00;97787.25;4963762;28;20237;-55
2022/09/30 00:12:22;;;;;;;8.13;3.90;;;;;;;7.85;100.00;97797.00;4964813;28;20262;-56
2022/09/30 00:14:49;;;;;;;9.97;4.30;;;;;;;7.77;100.00;97794.34;4963803;28;20246;-53
2022/09/30 00:17:15;;;;;;;8.00;3.87;;;;;;;7.70;100.00;97791.53;4965435;28;20268;-54
2022/09/30 00:19:42;;;;;;;9.13;3.80;;;;;;;7.65;100.00;97781.59;4964232;28;20317;-56
2022/09/30 00:22:09;;;;;;;9.33;4.53;;;;;;;7.54;100.00;97784.47;4967761;28;20230;-53
2022/09/30 00:24:37;;;;;;;7.87;4.27;;;;;;;7.51;100.00;97782.16;4964498;28;20226;-56
2022/09/30 00:27:03;;;;;;;10.20;3.73;;;;;;;7.41;100.00;97774.47;4966786;28;20756;-55
2022/09/30 00:29:30;;;;;;;6.43;3.50;;;;;;;7.35;100.00;97775.88;4947453;28;20761;-53
2022/09/30 00:31:56;;;;;;;9.13;3.87;;;;;;;7.28;100.00;97771.47;4967282;28;20300;-53
2022/09/30 00:34:23;;;;;;;7.50;3.23;;;;;;;7.24;100.00;97783.91;4966748;28;20373;-53
2022/09/30 00:36:51;;;;;;;6.47;4.00;;;;;;;7.18;100.00;97790.53;4964683;28;20654;-53
2022/09/30 00:39:20;;;;;;;9.30;3.80;;;;;;;7.15;100.00;97785.63;4967366;28;20268;-57
2022/09/30 00:41:50;;;;;;;6.57;3.80;;;;;;;7.11;100.00;97784.31;4963963;28;20775;-57
2022/09/30 00:44:46;;;;;;;5.37;3.50;;;;;;;7.13;100.00;97790.16;4964874;28;20218;-55
2022/09/30 00:47:43;;;;;;;9.50;3.97;;;;;;;7.07;100.00;97786.38;4964426;28;20257;-55
2022/09/30 00:50:16;;;;;;;5.40;3.80;;;;;;;7.08;100.00;97792.38;4949607;28;20280;-54
2022/09/30 00:52:45;;;;;;;5.90;3.55;;;;;;;7.02;100.00;97791.19;4963805;28;20457;-55
2022/09/30 00:55:24;;;;;;;8.07;4.33;;;;;;;7.04;100.00;97788.47;4966378;28;20320;-55
2022/09/30 00:57:52;;;;;;;5.13;3.60;;;;;;;7.09;100.00;97792.22;4960819;28;20229;-55
2022/09/30 01:00:19;;;;;;;7.40;4.20;;;;;;;7.03;100.00;97789.41;4964326;28;20218;-56
2022/09/30 01:02:46;;;;;;;5.40;3.63;;;;;;;7.08;100.00;97794.97;4961465;28;20310;-56
2022/09/30 01:05:13;;;;;;;8.53;2.63;;;;;;;7.07;100.00;97790.75;4963286;28;20879;-55
2022/09/30 01:07:40;;;;;;;9.00;3.27;;;;;;;7.10;100.00;97790.47;4961515;28;20677;-55
2022/09/30 01:10:07;;;;;;;8.40;3.33;;;;;;;7.10;100.00;97798.25;4963333;28;20282;-57
2022/09/30 01:12:33;;;;;;;8.60;3.60;;;;;;;7.15;100.00;97798.63;4960119;28;20242;-57
2022/09/30 01:15:02;;;;;;;7.37;3.10;;;;;;;7.20;100.00;97801.56;4963235;28;20237;-55
2022/09/30 01:17:40;;;;;;;4.07;3.00;;;;;;;7.23;100.00;97803.03;4960532;28;20225;-56
2022/09/30 01:20:47;;;;;;;4.50;3.20;;;;;;;7.32;100.00;97801.34;4961341;28;20222;-55
2022/09/30 01:23:47;;;;;;;5.00;3.20;;;;;;;7.37;100.00;97799.91;4953984;28;20229;-55
2022/09/30 01:26:48;;;;;;;5.57;2.93;;;;;;;7.42;100.00;97798.66;4960592;28;20236;-53
2022/09/30 01:29:46;;;;;;;5.70;2.87;;;;;;;7.48;100.00;97798.03;4954250;28;20234;-55
2022/09/30 01:32:24;;;;;;;5.83;2.50;;;;;;;7.53;100.00;97799.22;4942801;28;20830;-56
2022/09/30 01:35:03;;;;;;;4.30;2.70;;;;;;;7.57;100.00;97804.09;4958949;28;20713;-53
2022/09/30 01:37:44;;;;;;;5.03;2.70;;;;;;;7.62;100.00;97813.09;4959165;28;20209;-54
2022/09/30 01:40:21;;;;;;;4.53;2.90;;;;;;;7.66;100.00;97814.41;4962070;28;20300;-52
2022/09/30 01:42:54;;;;;;;5.57;3.00;;;;;;;7.72;100.00;97812.97;4958879;28;20237;-55
2022/09/30 01:45:31;;;;;;;4.67;2.73;;;;;;;7.82;100.00;97818.88;4962200;28;20312;-54
2022/09/30 01:48:03;;;;;;;5.47;3.00;;;;;;;7.80;100.00;97820.81;4940368;29;20247;-55
2022/09/30 01:50:36;;;;;;;3.77;2.60;;;;;;;7.85;100.00;97819.53;4941513;28;20657;-55
2022/09/30 01:53:08;;;;;;;7.13;3.30;;;;;;;7.86;100.00;97822.00;4955895;28;20253;-55
2022/09/30 01:55:39;;;;;;;4.30;2.77;;;;;;;7.87;100.00;97821.03;4959226;28;20280;-54
2022/09/30 01:58:12;;;;;;;5.13;3.00;;;;;;;7.88;100.00;97827.03;4963658;28;20282;-53
2022/09/30 02:00:43;;;;;;;5.87;3.17;;;;;;;7.91;100.00;97826.72;4960504;28;20706;-55
2022/09/30 02:03:17;;;;;;;4.23;2.90;;;;;;;7.95;100.00;97830.66;4962491;28;20304;-55
2022/09/30 02:05:50;;;;;;;4.80;3.10;;;;;;;7.94;100.00;97836.81;4959708;28;20229;-55
2022/09/30 02:08:24;;;;;;;8.10;2.77;;;;;;;7.94;100.00;97831.63;4964366;28;20225;-56
2022/09/30 02:10:57;;;;;;;13.40;3.27;;;;;;;7.93;100.00;97840.38;4955570;28;20304;-55
2022/09/30 02:13:29;;;;;;;4.40;2.87;;;;;;;7.93;100.00;97846.41;4965225;28;20241;-56
2022/09/30 02:16:01;;;;;;;6.27;2.70;;;;;;;7.95;100.00;97848.84;4948551;28;20293;-53
2022/09/30 02:18:38;;;;;;;4.03;2.70;;;;;;;7.95;100.00;97846.25;4963015;28;20249;-55
2022/09/30 02:21:07;;;;;;;8.57;2.97;;;;;;;7.93;100.00;97855.97;4965870;28;20223;-53
2022/09/30 02:23:39;;;;;;;6.73;2.60;;;;;;;7.91;100.00;97857.91;4962406;28;20772;-53
2022/09/30 02:26:11;;;;;;;6.50;2.70;;;;;;;7.88;100.00;97853.84;4965681;28;20238;-55
2022/09/30 02:28:44;;;;;;;3.73;2.67;;;;;;;7.90;100.00;97851.91;4961687;28;20244;-54
2022/09/30 02:31:12;;;;;;;4.20;2.70;;;;;;;7.89;100.00;97854.66;4967971;28;20225;-54
2022/09/30 02:33:44;;;;;;;6.20;2.70;;;;;;;7.88;100.00;97847.81;4966606;28;20295;-53
2022/09/30 02:36:16;;;;;;;6.17;2.80;;;;;;;7.88;100.00;97855.63;4967973;28;20622;-55
2022/09/30 02:38:47;;;;;;;3.60;2.63;;;;;;;7.88;100.00;97848.66;4966292;28;20269;-55
2022/09/30 02:41:20;;;;;;;7.07;3.23;;;;;;;7.86;100.00;97860.97;4969511;28;20221;-56
2022/09/30 02:43:47;;;;;;;8.97;3.43;;;;;;;7.87;100.00;97856.59;4966222;28;20316;-55
2022/09/30 02:46:23;;;;;;;5.87;2.90;;;;;;;7.81;100.00;97853.63;4969373;28;20261;-55
2022/09/30 02:48:59;;;;;;;5.50;2.97;;;;;;;7.77;100.00;97852.31;4966390;28;20225;-54
2022/09/30 02:51:35;;;;;;;7.40;2.80;;;;;;;7.79;100.00;97855.56;4965969;28;20732;-54
2022/09/30 02:54:07;;;;;;;6.27;3.30;;;;;;;7.76;100.00;97852.47;4967850;28;20741;-55
2022/09/30 02:56:43;;;;;;;7.27;3.00;;;;;;;7.77;100.00;97854.91;4965965;28;20305;-54
2022/09/30 02:59:10;;;;;;;5.03;2.73;;;;;;;7.73;100.00;97848.38;4968413;28;20312;-53
2022/09/30 03:04:23;;;;;;;4.80;2.40;;;;;;;7.77;100.00;97861.88;5521873;23;20232;-55
2022/09/30 03:06:50;;;;;;;4.93;3.40;;;;;;;7.79;100.00;97871.16;4977813;28;20226;-56
2022/09/30 03:09:17;;;;;;;3.53;2.90;;;;;;;7.78;100.00;97863.53;4984827;28;20245;-56
2022/09/30 03:11:46;;;;;;;7.60;2.97;;;;;;;7.80;100.00;97870.19;4980471;28;20241;-55
2022/09/30 03:14:54;;;;;;;5.07;2.63;;;;;;;7.81;100.00;97866.63;4974780;28;20261;-55
2022/09/30 03:17:33;;;;;;;4.17;2.77;;;;;;;7.85;100.00;97867.16;4954890;28;20296;-53
2022/09/30 03:20:17;;;;;;;6.03;3.17;;;;;;;7.89;100.00;97859.84;4965906;28;20237;-56
2022/09/30 03:22:56;;;;;;;3.33;2.43;;;;;;;7.88;100.00;97858.22;4957359;28;20231;-55
2022/09/30 03:25:32;;;;;;;4.80;2.50;;;;;;;7.87;100.00;97862.63;4968238;28;20252;-56
2022/09/30 03:28:14;;;;;;;4.47;2.70;;;;;;;7.87;100.00;97864.38;4965714;28;20242;-55
2022/09/30 03:30:47;;;;;;;7.70;3.13;;;;;;;7.89;100.00;97872.84;4965149;28;20258;-55
2022/09/30 03:33:21;;;;;;;5.17;2.97;;;;;;;7.92;100.00;97870.78;4967712;28;20756;-55
2022/09/30 03:35:58;;;;;;;7.20;2.97;;;;;;;7.92;100.00;97880.34;4965077;28;20241;-56
2022/09/30 03:38:36;;;;;;;4.50;2.50;;;;;;;7.89;100.00;97881.47;4967933;28;20229;-55
2022/09/30 03:41:10;;;;;;;6.40;2.73;;;;;;;7.85;100.00;97879.31;4965775;28;20238;-56
2022/09/30 03:43:44;;;;;;;4.23;2.80;;;;;;;7.82;100.00;97876.03;4964351;28;20235;-56
2022/09/30 03:46:18;;;;;;;3.47;2.47;;;;;;;7.76;100.00;97889.63;4968196;28;20288;-56
2022/09/30 03:48:48;;;;;;;5.20;2.80;;;;;;;7.74;100.00;97899.38;4957823;28;20305;-56
2022/09/30 03:51:17;;;;;;;9.77;2.80;;;;;;;7.73;100.00;97891.75;4967667;28;20238;-55
2022/09/30 03:53:45;;;;;;;5.38;3.03;;;;;;;7.71;100.00;97894.47;4964165;28;20442;-56
2022/09/30 03:56:12;;;;;;;5.27;2.67;;;;;;;7.67;100.00;97900.94;4967820;28;20598;-55
2022/09/30 03:58:42;;;;;;;6.90;2.77;;;;;;;7.67;100.00;97898.34;4955051;28;20234;-55
2022/09/30 04:01:17;;;;;;;4.37;2.70;;;;;;;7.69;100.00;97896.41;4966888;28;20690;-55
2022/09/30 04:03:44;;;;;;;5.43;2.80;;;;;;;7.65;100.00;97895.06;4956471;28;20829;-55
2022/09/30 04:06:13;;;;;;;4.43;2.53;;;;;;;7.63;100.00;97895.22;4967881;28;20324;-54
2022/09/30 04:08:41;;;;;;;4.53;2.90;;;;;;;7.56;100.00;97896.78;4965041;28;20241;-56
2022/09/30 04:11:07;;;;;;;7.90;2.80;;;;;;;7.53;100.00;97891.91;4967655;28;20590;-54
2022/09/30 04:13:34;;;;;;;4.10;2.77;;;;;;;7.49;100.00;97890.56;4964713;28;20280;-55
2022/09/30 04:16:01;;;;;;;4.00;2.50;;;;;;;7.44;100.00;97888.41;4967569;28;20238;-53
2022/09/30 04:18:30;;;;;;;3.77;3.20;;;;;;;7.36;100.00;97888.34;4964315;28;20261;-56
2022/09/30 04:20:57;;;;;;;6.20;2.73;;;;;;;7.32;100.00;97900.81;4967333;28;20240;-55
2022/09/30 04:23:24;;;;;;;5.33;2.50;;;;;;;7.26;100.00;97893.59;4967246;28;20261;-55
2022/09/30 04:25:55;;;;;;;4.67;2.80;;;;;;;7.21;100.00;97912.22;4964433;28;20281;-56
2022/09/30 04:28:22;;;;;;;4.50;3.13;;;;;;;7.21;100.00;97898.41;4966652;28;20713;-57
2022/09/30 04:30:49;;;;;;;4.97;2.80;;;;;;;7.14;100.00;97906.00;4963443;28;20237;-53
2022/09/30 04:33:15;;;;;;;4.47;3.17;;;;;;;7.06;100.00;97905.91;4966717;28;20237;-56
2022/09/30 04:35:42;;;;;;;5.07;3.10;;;;;;;7.00;100.00;97896.09;4955684;28;20633;-55
2022/09/30 04:38:08;;;;;;;4.27;3.37;;;;;;;6.98;100.00;97909.22;4960297;28;20254;-56
2022/09/30 04:40:36;;;;;;;5.20;3.10;;;;;;;6.96;100.00;97910.34;4960319;28;20467;-56
2022/09/30 04:43:05;;;;;;;5.33;3.30;;;;;;;6.93;100.00;97914.84;4966770;28;20225;-56
2022/09/30 04:45:31;;;;;;;3.97;3.03;;;;;;;6.92;100.00;97915.81;4964232;28;20226;-55
2022/09/30 04:47:58;;;;;;;10.30;3.27;;;;;;;6.87;100.00;97928.41;4966490;28;20780;-53
2022/09/30 04:50:24;;;;;;;5.40;3.43;;;;;;;6.88;100.00;97932.63;4966514;28;20229;-54
2022/09/30 04:52:51;;;;;;;6.90;3.67;;;;;;;6.79;100.00;97929.13;4962843;28;20245;-53
2022/09/30 04:55:18;;;;;;;9.20;3.50;;;;;;;6.72;100.00;97933.25;4964687;28;20233;-56
2022/09/30 04:57:45;;;;;;;6.77;4.13;;;;;;;6.67;100.00;97932.88;4964008;28;20233;-56
2022/09/30 05:00:13;;;;;;;7.03;3.40;;;;;;;6.54;100.00;97930.56;4966998;28;20238;-56
2022/09/30 05:02:42;;;;;;;10.63;3.73;;;;;;;6.41;100.00;97936.09;4963998;28;20771;-54
2022/09/30 05:05:09;;;;;;;6.30;3.47;;;;;;;6.40;100.00;97944.00;4961311;28;20246;-55
2022/09/30 05:07:36;;;;;;;8.47;4.30;;;;;;;6.28;100.00;97936.41;4964411;28;20645;-55
2022/09/30 05:10:02;;;;;;;9.63;4.70;;;;;;;6.20;100.00;97941.47;4966671;28;20229;-55
2022/09/30 05:12:29;;;;;;;7.17;5.67;;;;;;;6.10;100.00;97941.47;4963303;28;20242;-56
2022/09/30 05:14:55;;;;;;;6.77;3.50;;;;;;;5.98;100.00;97938.22;4966451;28;20642;-54
2022/09/30 05:17:23;;;;;;;7.00;4.27;;;;;;;5.97;100.00;97935.75;4966420;28;20296;-55
2022/09/30 05:19:50;;;;;;;6.10;3.90;;;;;;;5.98;100.00;97945.16;4952095;28;20242;-55
2022/09/30 05:22:16;;;;;;;5.50;3.80;;;;;;;5.96;100.00;97942.72;4965360;28;20237;-55
2022/09/30 05:24:43;;;;;;;5.23;3.40;;;;;;;5.93;100.00;97953.34;4962787;28;20673;-55
2022/09/30 05:27:09;;;;;;;7.30;3.90;;;;;;;5.92;100.00;97962.06;4958980;28;20239;-56
2022/09/30 05:29:36;;;;;;;4.37;3.03;;;;;;;5.89;100.00;97955.38;4962801;28;20289;-54
2022/09/30 05:32:02;;;;;;;5.30;3.67;;;;;;;5.90;100.00;97962.19;4966254;28;20309;-55
2022/09/30 05:34:30;;;;;;;5.50;4.00;;;;;;;5.78;100.00;97965.06;4962991;28;20238;-55
2022/09/30 05:36:57;;;;;;;8.13;3.83;;;;;;;5.73;100.00;97971.47;4965685;28;20296;-56
2022/09/30 05:39:23;;;;;;;7.97;4.10;;;;;;;5.74;100.00;97980.88;4965598;28;20292;-55
2022/09/30 05:41:50;;;;;;;7.10;3.30;;;;;;;5.69;100.00;97975.28;4963027;28;20241;-55
2022/09/30 05:44:18;;;;;;;4.77;2.90;;;;;;;5.69;100.00;97980.47;4965050;28;20745;-55
2022/09/30 05:46:44;;;;;;;4.20;3.00;;;;;;;5.68;100.00;97984.00;4963052;28;20233;-55
2022/09/30 05:49:11;;;;;;;7.53;3.20;;;;;;;5.71;100.00;97991.50;4964894;28;20233;-55
2022/09/30 05:51:39;;;;;;;6.03;3.40;;;;;;;5.75;100.00;97989.47;4962721;28;20233;-55
2022/09/30 05:54:05;;;;;;;13.20;3.67;;;;;;;5.89;100.00;97996.81;4965352;28;20292;-54
2022/09/30 05:56:33;;;;;;;5.40;3.00;;;;;;;5.98;100.00;97997.78;4963203;28;20234;-54
2022/09/30 05:59:00;;;;;;;7.63;3.13;;;;;;;6.07;100.00;98003.13;4966065;28;20229;-56
2022/09/30 06:01:26;;;;;;;7.30;3.80;;;;;;;6.09;100.00;98002.03;4963659;28;20777;-56
2022/09/30 06:03:53;;;;;;;7.23;3.50;;;;;;;6.17;100.00;98009.13;4963368;28;20292;-54
2022/09/30 06:06:20;;;;;;;5.57;3.77;;;;;;;6.23;100.00;98007.75;4964904;28;20304;-55
2022/09/30 06:08:48;;;;;;;7.03;3.50;;;;;;;6.29;100.00;98009.78;4941125;28;20245;-55
2022/09/30 06:11:16;;;;;;;5.73;3.40;;;;;;;6.39;100.00;98022.72;4961295;28;20292;-55
2022/09/30 06:13:44;;;;;;;4.43;3.60;;;;;;;6.52;100.00;98018.06;4962079;28;20261;-53
2022/09/30 06:16:12;;;;;;;5.13;3.27;;;;;;;6.70;100.00;98025.94;4965669;28;20233;-54
2022/09/30 06:18:40;;;;;;;3.90;3.50;;;;;;;6.83;100.00;98030.81;4952366;28;20773;-56
2022/09/30 06:21:10;;;;;;;14.40;6.10;;;;;;;6.98;100.00;98038.16;4965077;28;20673;-56
2022/09/30 06:23:36;;;;;;;10.07;5.60;;;;;;;7.14;100.00;98037.53;4961785;28;20733;-55
2022/09/30 06:26:07;;;;;;;8.23;3.63;;;;;;;7.28;100.00;98042.25;4965342;28;20233;-56
2022/09/30 06:28:34;;;;;;;5.03;3.33;;;;;;;7.37;100.00;98043.97;4962604;28;20238;-53
2022/09/30 06:31:02;;;;;;;4.10;3.60;;;;;;;7.50;100.00;98054.00;4965399;28;20241;-56
2022/09/30 06:33:28;;;;;;;6.87;3.60;;;;;;;7.62;100.00;98053.81;4961782;28;20237;-53
2022/09/30 06:35:55;;;;;;;11.53;5.20;;;;;;;7.65;100.00;98058.72;4965317;28;20238;-56
2022/09/30 06:38:23;;;;;;;9.10;4.90;;;;;;;7.70;100.00;98063.50;4965258;28;20629;-56
2022/09/30 06:40:50;;;;;;;12.83;6.63;;;;;;;7.76;100.00;98063.72;4962582;28;20682;-56
2022/09/30 06:43:18;;;;;;;9.40;6.63;;;;;;;7.87;100.00;98069.66;4965013;28;20257;-55
2022/09/30 06:45:45;;;;;;;11.17;6.47;;;;;;;7.97;100.00;98071.22;4962580;28;20232;-56
2022/09/30 06:48:12;;;;;;;100.70;9.53;;;;;;;7.95;100.00;98075.75;4965128;28;20712;-55
2022/09/30 06:50:39;;;;;;;54.43;7.80;;;;;;;8.04;100.00;98081.84;4962376;28;20275;-56
2022/09/30 06:53:07;;;;;;;11.90;6.93;;;;;;;8.02;100.00;98080.34;4959538;28;20241;-54
2022/09/30 06:55:35;;;;;;;45.33;7.53;;;;;;;7.96;100.00;98079.16;4962261;28;20249;-57
2022/09/30 06:58:02;;;;;;;10.33;6.70;;;;;;;8.01;100.00;98076.94;4965569;28;20301;-56
2022/09/30 07:00:29;;;;;;;13.37;8.80;;;;;;;8.03;100.00;98084.59;4975419;28;20239;-56
2022/09/30 07:02:56;;;;;;;29.13;9.30;;;;;;;8.09;100.00;98087.44;4964150;28;20241;-56
2022/09/30 07:05:24;;;;;;;96.50;11.00;;;;;;;8.09;100.00;98084.00;4963398;28;20292;-55
2022/09/30 07:07:51;;;;;;;20.17;8.43;;;;;;;8.17;100.00;98084.06;4962276;28;20726;-56
2022/09/30 07:10:18;;;;;;;19.03;7.73;;;;;;;8.15;100.00;98080.00;4957594;28;20239;-56
2022/09/30 07:12:44;;;;;;;11.20;7.20;;;;;;;8.22;100.00;98091.44;4961102;28;20230;-57
2022/09/30 07:15:11;;;;;;;11.50;7.90;;;;;;;8.33;100.00;98090.38;4965036;28;20241;-54
2022/09/30 07:17:39;;;;;;;14.53;6.93;;;;;;;8.48;100.00;98088.09;4962526;28;20304;-55
2022/09/30 07:20:07;;;;;;;14.30;7.17;;;;;;;8.44;100.00;98082.34;4959690;28;20697;-56
2022/09/30 07:22:34;;;;;;;21.70;7.73;;;;;;;8.49;100.00;98089.72;4964043;28;20233;-56
2022/09/30 07:25:02;;;;;;;17.70;7.57;;;;;;;8.63;100.00;98096.97;4968405;28;20240;-55
2022/09/30 07:27:31;;;;;;;13.47;7.57;;;;;;;8.74;100.00;98103.75;4965399;28;20288;-56
2022/09/30 07:29:58;;;;;;;11.43;7.47;;;;;;;8.93;100.00;98107.13;4967801;28;20234;-57
2022/09/30 07:32:25;;;;;;;10.90;7.33;;;;;;;9.04;100.00;98113.84;4968252;28;20288;-55
2022/09/30 07:34:52;;;;;;;9.87;7.50;;;;;;;9.27;100.00;98103.72;4965204;28;20243;-57
2022/09/30 07:37:20;;;;;;;9.27;6.57;;;;;;;9.71;100.00;98116.63;4966644;28;20233;-54
2022/09/30 07:39:48;;;;;;;10.50;6.20;;;;;;;10.04;100.00;98118.47;4964675;28;20291;-57
2022/09/30 07:42:18;;;;;;;12.47;7.27;;;;;;;10.29;100.00;98116.72;4967658;28;20867;-54
2022/09/30 07:44:45;;;;;;;9.03;6.00;;;;;;;10.26;99.34;98129.28;4964780;28;20608;-55
2022/09/30 07:47:13;;;;;;;12.00;6.97;;;;;;;10.17;97.56;98129.28;4967800;28;20229;-57
2022/09/30 07:49:41;;;;;;;9.17;6.90;;;;;;;9.94;98.80;98139.50;4964886;28;20289;-57
2022/09/30 07:52:10;;;;;;;10.07;6.73;;;;;;;9.68;100.00;98136.94;4967572;28;20303;-56
2022/09/30 07:54:38;;;;;;;14.60;7.40;;;;;;;9.56;100.00;98141.63;4963117;28;20292;-57
2022/09/30 07:57:06;;;;;;;11.50;7.57;;;;;;;9.48;100.00;98142.41;4967630;28;20233;-54
2022/09/30 07:59:36;;;;;;;9.97;6.60;;;;;;;9.56;100.00;98145.03;4964932;28;20306;-55
2022/09/30 08:02:03;;;;;;;11.00;7.20;;;;;;;9.40;100.00;98145.78;4967941;28;20233;-56
2022/09/30 08:04:30;;;;;;;14.03;7.80;;;;;;;9.51;100.00;98149.09;4964074;28;20252;-56
2022/09/30 08:06:59;;;;;;;14.13;9.87;;;;;;;9.56;100.00;98150.25;4966869;28;20242;-56
2022/09/30 08:09:29;;;;;;;11.93;8.43;;;;;;;9.70;100.00;98158.44;4967444;28;20225;-56
2022/09/30 08:11:56;;;;;;;15.27;9.30;;;;;;;9.77;100.00;98163.88;4965004;28;20293;-54
2022/09/30 08:14:25;;;;;;;18.13;9.70;;;;;;;10.01;100.00;98166.56;4967038;28;20285;-56
2022/09/30 08:16:52;;;;;;;13.47;9.13;;;;;;;10.04;100.00;98168.84;4964459;28;20230;-56
2022/09/30 08:19:20;;;;;;;14.20;9.07;;;;;;;10.24;100.00;98168.56;4967279;28;20230;-55
2022/09/30 08:21:47;;;;;;;14.27;9.47;;;;;;;10.18;100.00;98182.22;4964461;28;32470;-55
2022/09/30 08:24:14;;;;;;;14.07;10.03;;;;;;;10.30;100.00;98183.56;4966865;28;20244;-55
2022/09/30 08:26:43;;;;;;;20.23;10.70;;;;;;;10.33;100.00;98185.06;4963907;28;20248;-54
2022/09/30 08:29:12;;;;;;;21.27;11.27;;;;;;;10.40;100.00;98187.84;4966412;28;20298;-55
2022/09/30 08:31:39;;;;;;;17.87;12.23;;;;;;;10.30;100.00;98180.97;4962201;28;20242;-56
2022/09/30 08:34:06;;;;;;;18.10;12.97;;;;;;;10.41;100.00;98185.09;4965806;28;20351;-57
2022/09/30 08:36:32;;;;;;;18.73;12.07;;;;;;;10.43;100.00;98193.59;4963140;28;20227;-56
2022/09/30 08:38:59;;;;;;;17.47;11.50;;;;;;;10.09;100.00;98191.00;4966395;28;20238;-57
2022/09/30 08:41:42;;;;;;;19.67;12.53;;;;;;;10.11;100.00;98189.88;4967235;28;20233;-55
2022/09/30 08:44:25;;;;;;;19.13;12.53;;;;;;;10.17;100.00;98202.31;4963984;28;20253;-57
2022/09/30 08:46:58;;;;;;;25.00;13.50;;;;;;;10.17;100.00;98211.91;4963624;28;20238;-57
2022/09/30 08:49:38;;;;;;;25.30;13.97;;;;;;;10.22;100.00;98211.44;4966896;28;20230;-57
2022/09/30 08:52:13;;;;;;;19.87;13.70;;;;;;;10.12;100.00;98209.78;4964423;28;20251;-57
2022/09/30 08:54:46;;;;;;;24.17;17.93;;;;;;;10.06;100.00;98214.81;4963455;28;20242;-57
2022/09/30 08:57:13;;;;;;;24.43;14.07;;;;;;;10.23;100.00;98211.25;4965827;28;20230;-57
2022/09/30 08:59:46;;;;;;;28.43;14.20;;;;;;;10.22;100.00;98216.66;4949859;28;20293;-54
2022/09/30 09:02:19;;;;;;;21.40;13.17;;;;;;;10.08;100.00;98216.28;4964968;28;20276;-57
2022/09/30 09:04:47;;;;;;;25.67;14.53;;;;;;;10.09;100.00;98214.47;4962868;28;21167;-57
2022/09/30 09:07:27;;;;;;;20.33;14.07;;;;;;;10.24;100.00;98217.31;4966099;28;20241;-57
2022/09/30 09:10:08;;;;;;;17.40;12.97;;;;;;;10.24;100.00;98228.56;4963492;28;20241;-58
2022/09/30 09:12:46;;;;;;;21.27;13.03;;;;;;;10.10;100.00;98232.59;4962768;28;20238;-57
2022/09/30 09:15:32;;;;;;;22.43;14.27;;;;;;;10.12;100.00;98233.25;4965917;28;20237;-57
2022/09/30 09:18:17;;;;;;;21.37;14.47;;;;;;;10.29;100.00;98228.09;4983740;23;20228;-55
2022/09/30 09:20:53;;;;;;;21.03;14.07;;;;;;;10.33;100.00;98226.81;4979223;28;20245;-54
2022/09/30 09:23:20;;;;;;;23.87;15.23;;;;;;;10.34;100.00;98231.03;4979640;28;20229;-56
2022/09/30 09:25:51;;;;;;;23.10;15.43;;;;;;;10.32;100.00;98230.38;4963655;28;24356;-56
2022/09/30 09:28:32;;;;;;;25.60;15.73;;;;;;;10.24;100.00;98228.56;4965643;28;20226;-56
2022/09/30 09:31:01;;;;;;;25.67;14.83;;;;;;;10.33;100.00;98224.19;4963329;28;20222;-56
2022/09/30 09:33:30;;;;;;;25.20;13.70;;;;;;;10.47;100.00;98225.38;4963055;28;20564;-56
2022/09/30 09:36:23;;;;;;;20.93;14.73;;;;;;;10.49;100.00;98220.81;4965922;28;20257;-56
2022/09/30 09:39:12;;;;;;;32.47;17.50;;;;;;;10.48;100.00;98222.63;4963387;28;20235;-56
2022/09/30 09:41:46;;;;;;;24.87;14.83;;;;;;;10.57;100.00;98217.44;4962671;28;20598;-56
2022/09/30 09:44:23;;;;;;;26.20;16.40;;;;;;;10.59;100.00;98225.91;4965233;28;20246;-55
2022/09/30 09:47:00;;;;;;;26.97;16.77;;;;;;;10.74;100.00;98215.63;4954563;28;20698;-55
2022/09/30 09:49:33;;;;;;;28.90;16.33;;;;;;;10.72;100.00;98222.81;4964706;28;20234;-56
2022/09/30 09:52:38;;;;;;;28.63;17.20;;;;;;;10.87;100.00;98229.03;4962906;28;20226;-55
2022/09/30 09:55:08;;;;;;;21.77;14.63;;;;;;;11.08;100.00;98227.75;4957824;28;20246;-54
2022/09/30 09:57:34;;;;;;;22.77;15.70;;;;;;;11.28;99.33;98238.66;4962539;28;20230;-56
2022/09/30 10:02:59;;;;;;;26.93;15.93;;;;;;;11.11;95.44;98231.81;4941753;29;20322;-53
2022/09/30 10:05:28;;;;;;;28.30;16.70;;;;;;;11.04;98.29;98244.72;4949289;28;20234;-55
2022/09/30 10:08:10;;;;;;;128.77;46.17;;;;;;;11.20;96.84;98244.69;4962318;28;20241;-56
2022/09/30 10:10:44;;;;;;;129.10;42.40;;;;;;;11.34;95.22;98253.66;4962575;28;20375;-54
2022/09/30 10:13:17;;;;;;;34.50;18.33;;;;;;;11.31;94.71;98250.56;4956493;28;20234;-53
2022/09/30 10:15:43;;;;;;;26.17;17.00;;;;;;;11.30;95.08;98254.16;4958477;28;20271;-55
2022/09/30 10:18:19;;;;;;;29.40;17.73;;;;;;;11.29;95.11;98252.53;4946360;29;20240;-55
2022/09/30 10:20:51;;;;;;;22.47;14.83;;;;;;;11.15;94.70;98251.41;4943037;29;20234;-56
2022/09/30 10:23:20;;;;;;;24.17;14.63;;;;;;;11.17;95.41;98245.00;4952636;28;20235;-54
2022/09/30 10:26:17;;;;;;;23.87;14.63;;;;;;;11.41;95.81;98255.63;4951943;28;20886;-56
2022/09/30 10:28:46;;;;;;;19.77;14.43;;;;;;;11.44;94.38;98250.06;4938446;28;20818;-54
2022/09/30 10:31:17;;;;;;;21.67;15.27;;;;;;;11.36;93.91;98246.47;4965206;28;20249;-54
2022/09/30 10:33:48;;;;;;;25.27;15.77;;;;;;;11.27;95.40;98241.41;4962401;28;20288;-54
2022/09/30 10:36:17;;;;;;;26.40;15.70;;;;;;;11.17;96.58;98246.81;4964972;28;20234;-53
2022/09/30 10:38:58;;;;;;;25.00;15.57;;;;;;;11.44;95.14;98252.69;4962459;28;20266;-59
2022/09/30 10:41:28;;;;;;;25.53;15.10;;;;;;;11.60;93.42;98251.81;4964806;28;20881;-54
2022/09/30 10:43:57;;;;;;;25.23;14.87;;;;;;;11.71;93.50;98254.09;4962556;28;20247;-58
2022/09/30 10:46:27;;;;;;;30.83;15.60;;;;;;;11.53;92.84;98256.91;4964975;28;20674;-57
2022/09/30 10:48:57;;;;;;;25.93;16.13;;;;;;;11.79;93.02;98261.09;4962744;28;20635;-57
2022/09/30 10:51:28;;;;;;;29.30;15.63;;;;;;;11.82;90.64;98258.97;4964989;28;20228;-57
2022/09/30 10:53:56;;;;;;;23.07;15.33;;;;;;;12.18;89.32;98259.53;4964769;28;20239;-55
2022/09/30 10:56:42;;;;;;;20.37;14.13;;;;;;;12.09;87.64;98254.34;4967455;28;20283;-56
2022/09/30 10:59:19;;;;;;;21.90;14.53;;;;;;;12.15;89.89;98252.84;4966102;28;20243;-57
2022/09/30 11:01:50;;;;;;;24.67;14.33;;;;;;;12.37;88.72;98243.41;4965144;28;20654;-56
2022/09/30 11:04:25;;;;;;;22.03;14.23;;;;;;;12.49;87.65;98245.63;4965125;28;20728;-57
2022/09/30 11:06:57;;;;;;;22.03;14.40;;;;;;;12.57;86.39;98245.59;4965818;28;20238;-57
2022/09/30 11:09:33;;;;;;;20.23;13.17;;;;;;;12.87;86.96;98253.56;4968133;28;20231;-57
2022/09/30 11:12:04;;;;;;;19.33;13.43;;;;;;;12.94;85.43;98253.69;4966116;28;20240;-57
2022/09/30 11:14:37;;;;;;;21.17;13.30;;;;;;;13.19;85.52;98264.81;4964565;28;20232;-57
2022/09/30 11:17:25;;;;;;;22.63;14.60;;;;;;;13.35;82.33;98255.16;4967839;28;20275;-57
2022/09/30 11:20:05;;;;;;;23.10;15.07;;;;;;;13.30;82.55;98258.31;4965005;28;20290;-55
2022/09/30 11:22:39;;;;;;;20.40;14.07;;;;;;;13.22;84.91;98255.75;4965100;28;20224;-57
2022/09/30 11:25:06;;;;;;;20.37;14.30;;;;;;;13.38;81.21;98258.25;4966405;28;20278;-57
2022/09/30 11:27:43;;;;;;;25.23;15.83;;;;;;;13.22;81.28;98259.22;4956810;28;20287;-55
2022/09/30 11:30:15;;;;;;;23.53;15.53;;;;;;;12.88;83.71;98268.31;4962017;28;20247;-56
2022/09/30 11:33:05;;;;;;;0.00;0.00;;;;;;;13.14;84.25;98262.69;4965696;28;20227;-58
2022/09/30 11:35:44;;;;;;;0.00;0.00;;;;;;;13.31;83.14;98267.81;4963626;28;20284;-56
2022/09/30 11:38:26;;;;;;;0.00;0.00;;;;;;;13.21;83.30;98259.38;4967681;28;20239;-55
2022/09/30 11:41:02;;;;;;;0.00;0.00;;;;;;;13.40;81.86;98258.88;4964831;28;20248;-56
2022/09/30 11:43:36;;;;;;;0.00;0.00;;;;;;;13.17;82.11;98260.72;4965046;28;20756;-56
2022/09/30 11:46:28;;;;;;;0.00;0.00;;;;;;;12.93;84.56;98255.50;4966791;28;20732;-56
2022/09/30 11:49:20;;;;;;;0.00;0.00;;;;;;;12.93;85.88;98252.03;4964963;28;20242;-56
2022/09/30 11:52:00;;;;;;;0.00;0.00;;;;;;;13.04;85.95;98253.47;4964971;28;20239;-56